sensor_id;sensor_type;location;lat;lon;timestamp;P1;durP1;ratioP1;P2;durP2;ratioP2
46391;SDS011;32098;49.448;7.904;2022-11-15T00:02:21;7.00;;;4.37;;
46391;SDS011;32098;49.448;7.904;2022-11-15T00:05:07;5.97;;;4.13;;
46391;SDS011;32098;49.448;7.904;2022-11-15T00:07:54;6.30;;;4.10;;
46391;SDS011;32098;49.448;7.904;2022-11-15T00:10:40;7.40;;;4.27;;
46391;SDS011;32098;49.448;7.904;2022-11-15T00:13:26;6.90;;;4.47;;
46391;SDS011;32098;49.448;7.904;2022-11-15T00:16:13;5.00;;;4.10;;
46391;SDS011;32098;49.448;7.904;2022-11-15T00:18:59;5.03;;;3.93;;
46391;SDS011;32098;49.448;7.904;2022-11-15T00:21:44;5.00;;;3.87;;
46391;SDS011;32098;49.448;7.904;2022-11-15T00:24:30;7.33;;;4.03;;
46391;SDS011;32098;49.448;7.904;2022-11-15T00:27:15;5.53;;;4.00;;
46391;SDS011;32098;49.448;7.904;2022-11-15T00:30:00;5.63;;;4.00;;
46391;SDS011;32098;49.448;7.904;2022-11-15T00:32:46;7.00;;;3.97;;
46391;SDS011;32098;49.448;7.904;2022-11-15T00:35:32;4.20;;;3.20;;
46391;SDS011;32098;49.448;7.904;2022-11-15T00:38:20;4.93;;;3.20;;
46391;SDS011;32098;49.448;7.904;2022-11-15T00:41:06;4.70;;;3.80;;
46391;SDS011;32098;49.448;7.904;2022-11-15T00:43:53;4.50;;;3.20;;
46391;SDS011;32098;49.448;7.904;2022-11-15T00:46:39;3.97;;;3.20;;
46391;SDS011;32098;49.448;7.904;2022-11-15T00:49:24;6.63;;;3.60;;
46391;SDS011;32098;49.448;7.904;2022-11-15T00:52:09;7.03;;;3.17;;
46391;SDS011;32098;49.448;7.904;2022-11-15T00:54:55;3.50;;;3.20;;
46391;SDS011;32098;49.448;7.904;2022-11-15T00:57:43;4.30;;;2.70;;
46391;SDS011;32098;49.448;7.904;2022-11-15T01:00:29;4.77;;;2.87;;
46391;SDS011;32098;49.448;7.904;2022-11-15T01:03:17;3.63;;;3.00;;
46391;SDS011;32098;49.448;7.904;2022-11-15T01:06:04;4.13;;;3.20;;
46391;SDS011;32098;49.448;7.904;2022-11-15T01:08:54;3.13;;;2.77;;
46391;SDS011;32098;49.448;7.904;2022-11-15T01:11:39;4.27;;;2.90;;
46391;SDS011;32098;49.448;7.904;2022-11-15T01:14:25;4.43;;;3.13;;
46391;SDS011;32098;49.448;7.904;2022-11-15T01:17:12;2.77;;;2.47;;
46391;SDS011;32098;49.448;7.904;2022-11-15T01:19:58;3.67;;;2.70;;
46391;SDS011;32098;49.448;7.904;2022-11-15T01:22:43;3.40;;;2.80;;
46391;SDS011;32098;49.448;7.904;2022-11-15T01:25:31;3.63;;;2.90;;
46391;SDS011;32098;49.448;7.904;2022-11-15T01:28:17;3.50;;;2.97;;
46391;SDS011;32098;49.448;7.904;2022-11-15T01:31:06;3.03;;;2.70;;
46391;SDS011;32098;49.448;7.904;2022-11-15T01:33:57;4.80;;;2.90;;
46391;SDS011;32098;49.448;7.904;2022-11-15T01:36:42;4.57;;;3.00;;
46391;SDS011;32098;49.448;7.904;2022-11-15T01:39:29;3.90;;;2.63;;
46391;SDS011;32098;49.448;7.904;2022-11-15T01:42:14;3.53;;;2.73;;
46391;SDS011;32098;49.448;7.904;2022-11-15T01:44:59;3.93;;;2.97;;
46391;SDS011;32098;49.448;7.904;2022-11-15T01:47:47;3.63;;;2.63;;
46391;SDS011;32098;49.448;7.904;2022-11-15T01:50:37;4.10;;;2.67;;
46391;SDS011;32098;49.448;7.904;2022-11-15T01:53:24;5.73;;;2.57;;
46391;SDS011;32098;49.448;7.904;2022-11-15T01:56:15;4.13;;;3.13;;
46391;SDS011;32098;49.448;7.904;2022-11-15T01:59:04;6.27;;;2.77;;
46391;SDS011;32098;49.448;7.904;2022-11-15T02:04:42;3.00;;;2.37;;
46391;SDS011;32098;49.448;7.904;2022-11-15T02:07:29;5.43;;;3.13;;
46391;SDS011;32098;49.448;7.904;2022-11-15T02:10:18;5.53;;;2.77;;
46391;SDS011;32098;49.448;7.904;2022-11-15T02:13:05;3.70;;;2.70;;
46391;SDS011;32098;49.448;7.904;2022-11-15T02:16:03;4.53;;;2.63;;
46391;SDS011;32098;49.448;7.904;2022-11-15T02:19:20;4.43;;;2.70;;
46391;SDS011;32098;49.448;7.904;2022-11-15T02:28:44;4.47;;;3.00;;
46391;SDS011;32098;49.448;7.904;2022-11-15T02:34:50;5.33;;;2.77;;
46391;SDS011;32098;49.448;7.904;2022-11-15T02:37:44;3.07;;;2.50;;
46391;SDS011;32098;49.448;7.904;2022-11-15T02:40:58;4.80;;;2.77;;
46391;SDS011;32098;49.448;7.904;2022-11-15T02:43:48;3.60;;;2.30;;
46391;SDS011;32098;49.448;7.904;2022-11-15T02:50:01;3.80;;;2.77;;
46391;SDS011;32098;49.448;7.904;2022-11-15T02:52:51;3.00;;;2.67;;
46391;SDS011;32098;49.448;7.904;2022-11-15T02:56:10;5.37;;;2.43;;
46391;SDS011;32098;49.448;7.904;2022-11-15T03:05:11;3.70;;;2.57;;
46391;SDS011;32098;49.448;7.904;2022-11-15T03:13:59;4.17;;;2.60;;
46391;SDS011;32098;49.448;7.904;2022-11-15T03:17:02;4.07;;;2.80;;
46391;SDS011;32098;49.448;7.904;2022-11-15T03:20:03;5.33;;;2.60;;
46391;SDS011;32098;49.448;7.904;2022-11-15T03:22:50;3.13;;;2.70;;
46391;SDS011;32098;49.448;7.904;2022-11-15T03:25:38;4.67;;;2.70;;
46391;SDS011;32098;49.448;7.904;2022-11-15T03:28:30;2.80;;;2.40;;
46391;SDS011;32098;49.448;7.904;2022-11-15T03:31:18;3.43;;;2.57;;
46391;SDS011;32098;49.448;7.904;2022-11-15T03:37:35;4.57;;;2.70;;
46391;SDS011;32098;49.448;7.904;2022-11-15T03:40:27;3.30;;;2.70;;
46391;SDS011;32098;49.448;7.904;2022-11-15T03:46:42;4.47;;;3.43;;
46391;SDS011;32098;49.448;7.904;2022-11-15T03:49:33;3.20;;;2.63;;
46391;SDS011;32098;49.448;7.904;2022-11-15T03:52:21;3.93;;;2.97;;
46391;SDS011;32098;49.448;7.904;2022-11-15T03:55:07;2.30;;;2.10;;
46391;SDS011;32098;49.448;7.904;2022-11-15T03:57:57;3.73;;;3.40;;
46391;SDS011;32098;49.448;7.904;2022-11-15T04:00:44;3.23;;;2.93;;
46391;SDS011;32098;49.448;7.904;2022-11-15T04:03:28;3.47;;;2.50;;
46391;SDS011;32098;49.448;7.904;2022-11-15T04:06:14;3.50;;;2.60;;
46391;SDS011;32098;49.448;7.904;2022-11-15T04:08:59;3.30;;;2.50;;
46391;SDS011;32098;49.448;7.904;2022-11-15T04:11:44;2.60;;;2.40;;
46391;SDS011;32098;49.448;7.904;2022-11-15T04:14:29;3.50;;;2.40;;
46391;SDS011;32098;49.448;7.904;2022-11-15T04:17:14;2.67;;;2.23;;
46391;SDS011;32098;49.448;7.904;2022-11-15T04:19:59;4.13;;;2.87;;
46391;SDS011;32098;49.448;7.904;2022-11-15T04:23:04;5.07;;;2.60;;
46391;SDS011;32098;49.448;7.904;2022-11-15T04:26:17;4.80;;;2.90;;
46391;SDS011;32098;49.448;7.904;2022-11-15T04:29:05;3.57;;;2.10;;
46391;SDS011;32098;49.448;7.904;2022-11-15T04:32:09;2.87;;;2.50;;
46391;SDS011;32098;49.448;7.904;2022-11-15T04:34:54;3.87;;;2.90;;
46391;SDS011;32098;49.448;7.904;2022-11-15T04:37:39;4.67;;;2.83;;
46391;SDS011;32098;49.448;7.904;2022-11-15T04:40:32;8.00;;;4.10;;
46391;SDS011;32098;49.448;7.904;2022-11-15T04:43:17;7.33;;;2.93;;
46391;SDS011;32098;49.448;7.904;2022-11-15T04:46:02;2.90;;;2.37;;
46391;SDS011;32098;49.448;7.904;2022-11-15T04:48:47;2.57;;;2.10;;
46391;SDS011;32098;49.448;7.904;2022-11-15T04:51:32;2.73;;;2.00;;
46391;SDS011;32098;49.448;7.904;2022-11-15T04:54:18;2.27;;;2.03;;
46391;SDS011;32098;49.448;7.904;2022-11-15T04:57:03;3.40;;;2.57;;
46391;SDS011;32098;49.448;7.904;2022-11-15T04:59:48;3.70;;;2.67;;
46391;SDS011;32098;49.448;7.904;2022-11-15T05:02:33;3.53;;;2.87;;
46391;SDS011;32098;49.448;7.904;2022-11-15T05:05:37;3.53;;;2.97;;
46391;SDS011;32098;49.448;7.904;2022-11-15T05:08:22;2.43;;;1.83;;
46391;SDS011;32098;49.448;7.904;2022-11-15T05:11:07;2.10;;;1.90;;
46391;SDS011;32098;49.448;7.904;2022-11-15T05:13:52;3.03;;;2.03;;
46391;SDS011;32098;49.448;7.904;2022-11-15T05:16:38;2.90;;;2.10;;
46391;SDS011;32098;49.448;7.904;2022-11-15T05:19:23;2.97;;;1.63;;
46391;SDS011;32098;49.448;7.904;2022-11-15T05:22:08;2.47;;;1.93;;
46391;SDS011;32098;49.448;7.904;2022-11-15T05:24:53;3.17;;;1.80;;
46391;SDS011;32098;49.448;7.904;2022-11-15T05:27:38;3.90;;;2.13;;
46391;SDS011;32098;49.448;7.904;2022-11-15T05:30:23;1.73;;;1.50;;
46391;SDS011;32098;49.448;7.904;2022-11-15T05:33:08;2.03;;;1.50;;
46391;SDS011;32098;49.448;7.904;2022-11-15T05:35:57;3.83;;;1.93;;
46391;SDS011;32098;49.448;7.904;2022-11-15T05:38:47;3.00;;;1.60;;
46391;SDS011;32098;49.448;7.904;2022-11-15T05:41:34;2.27;;;2.07;;
46391;SDS011;32098;49.448;7.904;2022-11-15T05:44:24;2.00;;;1.80;;
46391;SDS011;32098;49.448;7.904;2022-11-15T05:47:12;3.60;;;1.90;;
46391;SDS011;32098;49.448;7.904;2022-11-15T05:50:02;3.40;;;2.43;;
46391;SDS011;32098;49.448;7.904;2022-11-15T05:52:47;2.67;;;2.30;;
46391;SDS011;32098;49.448;7.904;2022-11-15T05:55:33;3.47;;;2.00;;
46391;SDS011;32098;49.448;7.904;2022-11-15T05:58:19;2.10;;;1.90;;
46391;SDS011;32098;49.448;7.904;2022-11-15T06:01:05;2.25;;;2.00;;
46391;SDS011;32098;49.448;7.904;2022-11-15T06:03:50;1.73;;;1.60;;
46391;SDS011;32098;49.448;7.904;2022-11-15T06:06:35;1.77;;;1.50;;
46391;SDS011;32098;49.448;7.904;2022-11-15T06:09:20;3.88;;;2.47;;
46391;SDS011;32098;49.448;7.904;2022-11-15T06:12:05;3.05;;;1.70;;
46391;SDS011;32098;49.448;7.904;2022-11-15T06:14:50;2.33;;;1.42;;
46391;SDS011;32098;49.448;7.904;2022-11-15T06:17:35;1.60;;;1.50;;
46391;SDS011;32098;49.448;7.904;2022-11-15T06:20:20;2.20;;;1.57;;
46391;SDS011;32098;49.448;7.904;2022-11-15T06:23:05;1.73;;;1.57;;
46391;SDS011;32098;49.448;7.904;2022-11-15T06:25:50;2.30;;;1.90;;
46391;SDS011;32098;49.448;7.904;2022-11-15T06:28:36;3.07;;;1.93;;
46391;SDS011;32098;49.448;7.904;2022-11-15T06:31:21;3.07;;;1.70;;
46391;SDS011;32098;49.448;7.904;2022-11-15T06:34:06;2.10;;;1.73;;
46391;SDS011;32098;49.448;7.904;2022-11-15T06:36:51;2.63;;;1.80;;
46391;SDS011;32098;49.448;7.904;2022-11-15T06:39:36;5.90;;;4.23;;
46391;SDS011;32098;49.448;7.904;2022-11-15T06:42:21;7.13;;;6.00;;
46391;SDS011;32098;49.448;7.904;2022-11-15T06:45:08;8.60;;;6.10;;
46391;SDS011;32098;49.448;7.904;2022-11-15T06:47:53;8.13;;;6.23;;
46391;SDS011;32098;49.448;7.904;2022-11-15T06:50:39;7.57;;;6.33;;
46391;SDS011;32098;49.448;7.904;2022-11-15T06:53:24;9.03;;;5.57;;
46391;SDS011;32098;49.448;7.904;2022-11-15T06:56:10;6.57;;;5.00;;
46391;SDS011;32098;49.448;7.904;2022-11-15T06:58:55;5.13;;;4.37;;
46391;SDS011;32098;49.448;7.904;2022-11-15T07:01:40;6.53;;;5.00;;
46391;SDS011;32098;49.448;7.904;2022-11-15T07:04:25;6.70;;;4.70;;
46391;SDS011;32098;49.448;7.904;2022-11-15T07:07:10;5.63;;;3.13;;
46391;SDS011;32098;49.448;7.904;2022-11-15T07:09:55;5.97;;;4.10;;
46391;SDS011;32098;49.448;7.904;2022-11-15T07:12:40;7.63;;;4.87;;
46391;SDS011;32098;49.448;7.904;2022-11-15T07:15:26;6.53;;;4.53;;
46391;SDS011;32098;49.448;7.904;2022-11-15T07:18:11;6.43;;;4.60;;
46391;SDS011;32098;49.448;7.904;2022-11-15T07:20:59;5.10;;;3.80;;
46391;SDS011;32098;49.448;7.904;2022-11-15T07:23:45;3.73;;;2.80;;
46391;SDS011;32098;49.448;7.904;2022-11-15T07:26:30;3.43;;;2.70;;
46391;SDS011;32098;49.448;7.904;2022-11-15T07:29:15;5.30;;;2.63;;
46391;SDS011;32098;49.448;7.904;2022-11-15T07:32:00;5.27;;;2.40;;
46391;SDS011;32098;49.448;7.904;2022-11-15T07:34:45;3.70;;;2.43;;
46391;SDS011;32098;49.448;7.904;2022-11-15T07:37:31;4.80;;;2.70;;
46391;SDS011;32098;49.448;7.904;2022-11-15T07:40:16;2.20;;;2.00;;
46391;SDS011;32098;49.448;7.904;2022-11-15T07:43:02;4.93;;;2.40;;
46391;SDS011;32098;49.448;7.904;2022-11-15T07:45:49;2.30;;;2.10;;
46391;SDS011;32098;49.448;7.904;2022-11-15T07:48:42;3.93;;;2.30;;
46391;SDS011;32098;49.448;7.904;2022-11-15T07:51:29;2.73;;;2.30;;
46391;SDS011;32098;49.448;7.904;2022-11-15T07:54:14;4.40;;;2.27;;
46391;SDS011;32098;49.448;7.904;2022-11-15T07:56:59;5.63;;;2.17;;
46391;SDS011;32098;49.448;7.904;2022-11-15T07:59:51;5.77;;;2.07;;
46391;SDS011;32098;49.448;7.904;2022-11-15T08:02:37;2.57;;;2.23;;
46391;SDS011;32098;49.448;7.904;2022-11-15T08:05:22;4.03;;;2.00;;
46391;SDS011;32098;49.448;7.904;2022-11-15T08:08:08;6.37;;;2.87;;
46391;SDS011;32098;49.448;7.904;2022-11-15T08:10:59;5.20;;;2.40;;
46391;SDS011;32098;49.448;7.904;2022-11-15T08:13:45;4.73;;;1.97;;
46391;SDS011;32098;49.448;7.904;2022-11-15T08:16:30;3.97;;;2.17;;
46391;SDS011;32098;49.448;7.904;2022-11-15T08:19:15;3.63;;;2.10;;
46391;SDS011;32098;49.448;7.904;2022-11-15T08:22:00;3.00;;;2.20;;
46391;SDS011;32098;49.448;7.904;2022-11-15T08:24:45;5.57;;;2.50;;
46391;SDS011;32098;49.448;7.904;2022-11-15T08:27:30;3.50;;;2.50;;
46391;SDS011;32098;49.448;7.904;2022-11-15T08:30:15;2.43;;;2.13;;
46391;SDS011;32098;49.448;7.904;2022-11-15T08:33:00;4.47;;;2.73;;
46391;SDS011;32098;49.448;7.904;2022-11-15T08:35:45;4.10;;;2.90;;
46391;SDS011;32098;49.448;7.904;2022-11-15T08:38:30;4.83;;;2.50;;
46391;SDS011;32098;49.448;7.904;2022-11-15T08:41:19;4.10;;;2.77;;
46391;SDS011;32098;49.448;7.904;2022-11-15T08:44:18;5.30;;;2.60;;
46391;SDS011;32098;49.448;7.904;2022-11-15T08:47:03;3.60;;;2.33;;
46391;SDS011;32098;49.448;7.904;2022-11-15T08:49:48;2.63;;;2.40;;
46391;SDS011;32098;49.448;7.904;2022-11-15T08:52:33;4.20;;;3.03;;
46391;SDS011;32098;49.448;7.904;2022-11-15T08:55:18;4.53;;;3.20;;
46391;SDS011;32098;49.448;7.904;2022-11-15T08:58:08;5.90;;;2.80;;
46391;SDS011;32098;49.448;7.904;2022-11-15T09:00:53;6.63;;;2.83;;
46391;SDS011;32098;49.448;7.904;2022-11-15T09:03:39;3.20;;;2.80;;
46391;SDS011;32098;49.448;7.904;2022-11-15T09:06:25;5.50;;;3.10;;
46391;SDS011;32098;49.448;7.904;2022-11-15T09:09:10;3.37;;;2.83;;
46391;SDS011;32098;49.448;7.904;2022-11-15T09:11:55;3.43;;;3.13;;
46391;SDS011;32098;49.448;7.904;2022-11-15T09:14:46;6.40;;;3.00;;
46391;SDS011;32098;49.448;7.904;2022-11-15T09:17:31;5.03;;;3.00;;
46391;SDS011;32098;49.448;7.904;2022-11-15T09:20:16;3.50;;;2.30;;
46391;SDS011;32098;49.448;7.904;2022-11-15T09:23:01;2.47;;;2.27;;
46391;SDS011;32098;49.448;7.904;2022-11-15T09:25:47;3.20;;;2.70;;
46391;SDS011;32098;49.448;7.904;2022-11-15T09:28:33;6.47;;;4.70;;
46391;SDS011;32098;49.448;7.904;2022-11-15T09:31:20;7.47;;;5.00;;
46391;SDS011;32098;49.448;7.904;2022-11-15T09:34:06;5.50;;;4.70;;
46391;SDS011;32098;49.448;7.904;2022-11-15T09:36:51;5.57;;;4.40;;
46391;SDS011;32098;49.448;7.904;2022-11-15T09:39:36;6.27;;;3.50;;
46391;SDS011;32098;49.448;7.904;2022-11-15T09:42:38;3.63;;;2.87;;
46391;SDS011;32098;49.448;7.904;2022-11-15T09:45:48;5.07;;;3.07;;
46391;SDS011;32098;49.448;7.904;2022-11-15T09:49:02;5.83;;;3.70;;
46391;SDS011;32098;49.448;7.904;2022-11-15T09:51:40;4.80;;;4.10;;
46391;SDS011;32098;49.448;7.904;2022-11-15T09:54:33;5.57;;;3.97;;
46391;SDS011;32098;49.448;7.904;2022-11-15T09:57:30;5.50;;;3.10;;
46391;SDS011;32098;49.448;7.904;2022-11-15T10:03:14;2.40;;;2.20;;
46391;SDS011;32098;49.448;7.904;2022-11-15T10:05:46;3.73;;;2.20;;
46391;SDS011;32098;49.448;7.904;2022-11-15T10:11:00;2.03;;;1.60;;
46391;SDS011;32098;49.448;7.904;2022-11-15T10:13:50;2.37;;;1.87;;
46391;SDS011;32098;49.448;7.904;2022-11-15T10:24:47;2.23;;;1.73;;
46391;SDS011;32098;49.448;7.904;2022-11-15T10:27:17;2.73;;;2.07;;
46391;SDS011;32098;49.448;7.904;2022-11-15T10:29:49;5.77;;;2.10;;
46391;SDS011;32098;49.448;7.904;2022-11-15T10:32:17;4.00;;;2.53;;
46391;SDS011;32098;49.448;7.904;2022-11-15T10:34:46;6.93;;;3.80;;
46391;SDS011;32098;49.448;7.904;2022-11-15T10:37:14;3.03;;;2.53;;
46391;SDS011;32098;49.448;7.904;2022-11-15T10:39:40;2.20;;;1.93;;
46391;SDS011;32098;49.448;7.904;2022-11-15T10:42:26;3.30;;;2.20;;
46391;SDS011;32098;49.448;7.904;2022-11-15T10:44:55;1.60;;;1.50;;
46391;SDS011;32098;49.448;7.904;2022-11-15T10:47:26;1.50;;;1.33;;
46391;SDS011;32098;49.448;7.904;2022-11-15T10:49:55;2.63;;;1.48;;
46391;SDS011;32098;49.448;7.904;2022-11-15T10:52:34;3.27;;;1.50;;
46391;SDS011;32098;49.448;7.904;2022-11-15T10:57:51;1.98;;;1.50;;
46391;SDS011;32098;49.448;7.904;2022-11-15T11:06:02;1.27;;;1.17;;
46391;SDS011;32098;49.448;7.904;2022-11-15T11:10:54;1.48;;;1.20;;
46391;SDS011;32098;49.448;7.904;2022-11-15T11:13:38;1.45;;;1.30;;
46391;SDS011;32098;49.448;7.904;2022-11-15T11:21:55;2.20;;;1.42;;
46391;SDS011;32098;49.448;7.904;2022-11-15T11:35:43;1.37;;;1.10;;
46391;SDS011;32098;49.448;7.904;2022-11-15T11:38:32;1.17;;;1.05;;
46391;SDS011;32098;49.448;7.904;2022-11-15T11:41:52;1.00;;;0.90;;
46391;SDS011;32098;49.448;7.904;2022-11-15T11:44:31;2.58;;;1.50;;
46391;SDS011;32098;49.448;7.904;2022-11-15T11:47:11;2.47;;;1.60;;
46391;SDS011;32098;49.448;7.904;2022-11-15T11:52:22;2.83;;;1.85;;
46391;SDS011;32098;49.448;7.904;2022-11-15T11:55:21;2.65;;;1.70;;
46391;SDS011;32098;49.448;7.904;2022-11-15T12:00:41;1.00;;;0.90;;
46391;SDS011;32098;49.448;7.904;2022-11-15T12:03:42;2.57;;;0.90;;
46391;SDS011;32098;49.448;7.904;2022-11-15T12:08:50;1.10;;;1.00;;
46391;SDS011;32098;49.448;7.904;2022-11-15T12:11:42;1.27;;;0.80;;
46391;SDS011;32098;49.448;7.904;2022-11-15T12:14:26;1.50;;;0.90;;
46391;SDS011;32098;49.448;7.904;2022-11-15T12:16:54;1.80;;;1.30;;
46391;SDS011;32098;49.448;7.904;2022-11-15T12:19:21;3.33;;;1.50;;
46391;SDS011;32098;49.448;7.904;2022-11-15T12:22:02;1.00;;;0.90;;
46391;SDS011;32098;49.448;7.904;2022-11-15T12:24:38;1.00;;;0.90;;
46391;SDS011;32098;49.448;7.904;2022-11-15T12:30:16;1.87;;;1.50;;
46391;SDS011;32098;49.448;7.904;2022-11-15T12:32:57;1.73;;;1.20;;
46391;SDS011;32098;49.448;7.904;2022-11-15T12:35:32;1.27;;;1.02;;
46391;SDS011;32098;49.448;7.904;2022-11-15T12:38:01;2.55;;;1.67;;
46391;SDS011;32098;49.448;7.904;2022-11-15T12:40:29;2.13;;;1.58;;
46391;SDS011;32098;49.448;7.904;2022-11-15T12:58:40;2.45;;;1.42;;
46391;SDS011;32098;49.448;7.904;2022-11-15T13:06:54;1.03;;;0.80;;
46391;SDS011;32098;49.448;7.904;2022-11-15T13:10:07;2.63;;;1.75;;
46391;SDS011;32098;49.448;7.904;2022-11-15T13:15:00;3.87;;;2.70;;
46391;SDS011;32098;49.448;7.904;2022-11-15T13:17:35;1.00;;;0.90;;
46391;SDS011;32098;49.448;7.904;2022-11-15T13:20:22;1.50;;;1.08;;
46391;SDS011;32098;49.448;7.904;2022-11-15T13:28:46;1.87;;;1.40;;
46391;SDS011;32098;49.448;7.904;2022-11-15T13:31:29;1.60;;;1.27;;
46391;SDS011;32098;49.448;7.904;2022-11-15T13:34:14;0.80;;;0.73;;
46391;SDS011;32098;49.448;7.904;2022-11-15T13:37:01;0.93;;;0.83;;
46391;SDS011;32098;49.448;7.904;2022-11-15T13:39:29;1.37;;;0.97;;
46391;SDS011;32098;49.448;7.904;2022-11-15T13:41:58;2.20;;;0.80;;
46391;SDS011;32098;49.448;7.904;2022-11-15T13:44:26;2.33;;;1.10;;
46391;SDS011;32098;49.448;7.904;2022-11-15T13:47:12;0.67;;;0.53;;
46391;SDS011;32098;49.448;7.904;2022-11-15T13:49:40;1.10;;;0.93;;
46391;SDS011;32098;49.448;7.904;2022-11-15T13:52:08;0.98;;;0.77;;
46391;SDS011;32098;49.448;7.904;2022-11-15T13:54:42;1.13;;;0.70;;
46391;SDS011;32098;49.448;7.904;2022-11-15T13:57:19;1.10;;;0.67;;
46391;SDS011;32098;49.448;7.904;2022-11-15T13:59:52;2.57;;;1.60;;
46391;SDS011;32098;49.448;7.904;2022-11-15T14:02:26;2.25;;;1.15;;
46391;SDS011;32098;49.448;7.904;2022-11-15T14:04:54;1.40;;;1.30;;
46391;SDS011;32098;49.448;7.904;2022-11-15T14:07:23;1.00;;;0.90;;
46391;SDS011;32098;49.448;7.904;2022-11-15T14:09:52;1.60;;;1.17;;
46391;SDS011;32098;49.448;7.904;2022-11-15T14:12:22;1.80;;;0.90;;
46391;SDS011;32098;49.448;7.904;2022-11-15T14:14:51;0.80;;;0.67;;
46391;SDS011;32098;49.448;7.904;2022-11-15T14:17:20;1.33;;;1.10;;
46391;SDS011;32098;49.448;7.904;2022-11-15T14:19:58;1.40;;;1.10;;
46391;SDS011;32098;49.448;7.904;2022-11-15T14:22:25;3.20;;;0.93;;
46391;SDS011;32098;49.448;7.904;2022-11-15T14:25:14;2.33;;;1.13;;
46391;SDS011;32098;49.448;7.904;2022-11-15T14:30:49;8.63;;;4.00;;
46391;SDS011;32098;49.448;7.904;2022-11-15T14:33:24;7.30;;;3.57;;
46391;SDS011;32098;49.448;7.904;2022-11-15T14:35:58;4.53;;;2.53;;
46391;SDS011;32098;49.448;7.904;2022-11-15T14:38:29;4.40;;;1.30;;
46391;SDS011;32098;49.448;7.904;2022-11-15T14:40:56;3.88;;;2.17;;
46391;SDS011;32098;49.448;7.904;2022-11-15T14:43:23;2.83;;;1.60;;
46391;SDS011;32098;49.448;7.904;2022-11-15T14:45:50;2.03;;;0.97;;
46391;SDS011;32098;49.448;7.904;2022-11-15T14:48:17;2.13;;;1.10;;
46391;SDS011;32098;49.448;7.904;2022-11-15T14:50:43;1.60;;;0.80;;
46391;SDS011;32098;49.448;7.904;2022-11-15T14:53:17;1.63;;;1.23;;
46391;SDS011;32098;49.448;7.904;2022-11-15T14:55:45;2.53;;;1.60;;
46391;SDS011;32098;49.448;7.904;2022-11-15T14:58:11;3.63;;;2.13;;
46391;SDS011;32098;49.448;7.904;2022-11-15T15:00:39;2.90;;;1.00;;
46391;SDS011;32098;49.448;7.904;2022-11-15T15:03:07;0.70;;;0.70;;
46391;SDS011;32098;49.448;7.904;2022-11-15T15:05:34;1.52;;;1.40;;
46391;SDS011;32098;49.448;7.904;2022-11-15T15:08:01;3.00;;;1.80;;
46391;SDS011;32098;49.448;7.904;2022-11-15T15:10:31;1.83;;;1.20;;
46391;SDS011;32098;49.448;7.904;2022-11-15T15:13:08;1.53;;;0.80;;
46391;SDS011;32098;49.448;7.904;2022-11-15T15:15:40;1.10;;;1.00;;
46391;SDS011;32098;49.448;7.904;2022-11-15T15:18:07;1.77;;;1.08;;
46391;SDS011;32098;49.448;7.904;2022-11-15T15:20:34;0.90;;;0.70;;
46391;SDS011;32098;49.448;7.904;2022-11-15T15:23:03;0.80;;;0.80;;
46391;SDS011;32098;49.448;7.904;2022-11-15T15:25:30;0.80;;;0.80;;
46391;SDS011;32098;49.448;7.904;2022-11-15T15:27:59;0.53;;;0.53;;
46391;SDS011;32098;49.448;7.904;2022-11-15T15:30:26;1.05;;;0.88;;
46391;SDS011;32098;49.448;7.904;2022-11-15T15:32:55;0.80;;;0.80;;
46391;SDS011;32098;49.448;7.904;2022-11-15T15:35:22;0.90;;;0.90;;
46391;SDS011;32098;49.448;7.904;2022-11-15T15:37:49;1.85;;;1.00;;
46391;SDS011;32098;49.448;7.904;2022-11-15T15:40:18;1.90;;;0.97;;
46391;SDS011;32098;49.448;7.904;2022-11-15T15:42:47;2.55;;;1.02;;
46391;SDS011;32098;49.448;7.904;2022-11-15T15:45:14;1.98;;;1.10;;
46391;SDS011;32098;49.448;7.904;2022-11-15T15:47:42;1.50;;;1.10;;
46391;SDS011;32098;49.448;7.904;2022-11-15T15:50:22;2.65;;;1.17;;
46391;SDS011;32098;49.448;7.904;2022-11-15T15:52:51;1.30;;;1.20;;
46391;SDS011;32098;49.448;7.904;2022-11-15T15:55:19;1.57;;;1.40;;
46391;SDS011;32098;49.448;7.904;2022-11-15T15:57:46;2.97;;;1.37;;
46391;SDS011;32098;49.448;7.904;2022-11-15T16:00:13;1.63;;;1.30;;
46391;SDS011;32098;49.448;7.904;2022-11-15T16:02:40;2.95;;;1.38;;
46391;SDS011;32098;49.448;7.904;2022-11-15T16:05:07;1.38;;;1.20;;
46391;SDS011;32098;49.448;7.904;2022-11-15T16:07:35;1.70;;;1.25;;
46391;SDS011;32098;49.448;7.904;2022-11-15T16:10:23;1.15;;;1.05;;
46391;SDS011;32098;49.448;7.904;2022-11-15T16:12:52;1.40;;;1.23;;
46391;SDS011;32098;49.448;7.904;2022-11-15T16:15:19;3.50;;;1.17;;
46391;SDS011;32098;49.448;7.904;2022-11-15T16:17:48;1.52;;;1.10;;
46391;SDS011;32098;49.448;7.904;2022-11-15T16:20:28;2.05;;;1.40;;
46391;SDS011;32098;49.448;7.904;2022-11-15T16:23:06;2.20;;;1.30;;
46391;SDS011;32098;49.448;7.904;2022-11-15T16:25:48;1.40;;;1.23;;
46391;SDS011;32098;49.448;7.904;2022-11-15T16:28:20;1.45;;;1.23;;
46391;SDS011;32098;49.448;7.904;2022-11-15T16:30:49;2.37;;;1.57;;
46391;SDS011;32098;49.448;7.904;2022-11-15T16:33:25;3.13;;;1.97;;
46391;SDS011;32098;49.448;7.904;2022-11-15T16:35:52;5.37;;;2.50;;
46391;SDS011;32098;49.448;7.904;2022-11-15T16:38:19;3.33;;;2.20;;
46391;SDS011;32098;49.448;7.904;2022-11-15T16:40:45;3.00;;;1.90;;
46391;SDS011;32098;49.448;7.904;2022-11-15T16:43:12;6.90;;;3.70;;
46391;SDS011;32098;49.448;7.904;2022-11-15T16:45:38;5.87;;;2.80;;
46391;SDS011;32098;49.448;7.904;2022-11-15T16:48:05;2.53;;;1.83;;
46391;SDS011;32098;49.448;7.904;2022-11-15T16:50:32;1.87;;;1.77;;
46391;SDS011;32098;49.448;7.904;2022-11-15T16:53:06;3.17;;;1.57;;
46391;SDS011;32098;49.448;7.904;2022-11-15T16:55:33;2.20;;;1.50;;
46391;SDS011;32098;49.448;7.904;2022-11-15T16:57:59;1.80;;;1.60;;
46391;SDS011;32098;49.448;7.904;2022-11-15T17:00:27;1.80;;;1.50;;
46391;SDS011;32098;49.448;7.904;2022-11-15T17:02:53;2.57;;;1.50;;
46391;SDS011;32098;49.448;7.904;2022-11-15T17:05:21;3.13;;;1.43;;
46391;SDS011;32098;49.448;7.904;2022-11-15T17:07:50;3.33;;;2.03;;
46391;SDS011;32098;49.448;7.904;2022-11-15T17:10:21;2.40;;;2.00;;
46391;SDS011;32098;49.448;7.904;2022-11-15T17:12:48;4.23;;;1.97;;
46391;SDS011;32098;49.448;7.904;2022-11-15T17:15:16;3.17;;;2.10;;
46391;SDS011;32098;49.448;7.904;2022-11-15T17:17:43;7.33;;;2.10;;
46391;SDS011;32098;49.448;7.904;2022-11-15T17:20:14;2.77;;;2.00;;
46391;SDS011;32098;49.448;7.904;2022-11-15T17:22:42;3.87;;;2.47;;
46391;SDS011;32098;49.448;7.904;2022-11-15T17:25:10;3.27;;;2.30;;
46391;SDS011;32098;49.448;7.904;2022-11-15T17:27:36;2.93;;;2.50;;
46391;SDS011;32098;49.448;7.904;2022-11-15T17:30:03;3.43;;;2.37;;
46391;SDS011;32098;49.448;7.904;2022-11-15T17:32:31;4.20;;;2.60;;
46391;SDS011;32098;49.448;7.904;2022-11-15T17:34:57;3.13;;;2.50;;
46391;SDS011;32098;49.448;7.904;2022-11-15T17:37:23;4.60;;;2.90;;
46391;SDS011;32098;49.448;7.904;2022-11-15T17:39:50;4.33;;;2.77;;
46391;SDS011;32098;49.448;7.904;2022-11-15T17:42:16;3.17;;;2.80;;
46391;SDS011;32098;49.448;7.904;2022-11-15T17:44:43;4.03;;;3.10;;
46391;SDS011;32098;49.448;7.904;2022-11-15T17:47:09;3.30;;;2.67;;
46391;SDS011;32098;49.448;7.904;2022-11-15T17:49:36;4.73;;;2.80;;
46391;SDS011;32098;49.448;7.904;2022-11-15T17:52:05;3.83;;;2.67;;
46391;SDS011;32098;49.448;7.904;2022-11-15T17:54:33;2.97;;;2.57;;
46391;SDS011;32098;49.448;7.904;2022-11-15T17:56:59;6.07;;;3.03;;
46391;SDS011;32098;49.448;7.904;2022-11-15T17:59:26;2.83;;;2.63;;
46391;SDS011;32098;49.448;7.904;2022-11-15T18:01:52;3.07;;;2.57;;
46391;SDS011;32098;49.448;7.904;2022-11-15T18:04:19;2.77;;;2.57;;
46391;SDS011;32098;49.448;7.904;2022-11-15T18:06:46;4.63;;;2.80;;
46391;SDS011;32098;49.448;7.904;2022-11-15T18:09:12;3.90;;;2.50;;
46391;SDS011;32098;49.448;7.904;2022-11-15T18:11:39;5.67;;;2.60;;